CheckWX is a tool to help pilots better visualize weather data.  It is not intended as a substitute for an official pre-flight weather briefing.

14:34:15 UTC

KCQM METAR
Cook Municipal Airport
Cook, Minnesota, USA
Current

1 hour ago

KCQM 221311Z AUTO 00000KT 10SM 04/01 A3017 RMK AO2 LTG DSNT S
Observed
Apr-22 @ 13:11 UTC
Visibility
10 SM
Temperature
C / 39°F
Dewpoint
C / 34°F
Humidity
81%
Altimeter
30.17" Hg
Pressure
1021.72 hPa
Previous

2 hours ago

KCQM 221259Z AUTO 00000KT 10SM 04/01 A3017 RMK AO2
Observed
Apr-22 @ 12:59 UTC
Visibility
10 SM
Temperature
C / 39°F
Dewpoint
C / 34°F
Humidity
81%
Altimeter
30.17" Hg
Pressure
1021.72 hPa
Previous

2 hours ago

KCQM 221244Z AUTO 00000KT 10SM 04/01 A3017 RMK AO2 LTG DSNT S
Observed
Apr-22 @ 12:44 UTC
Visibility
10 SM
Temperature
C / 39°F
Dewpoint
C / 34°F
Humidity
81%
Altimeter
30.17" Hg
Pressure
1021.72 hPa